sensor_id;sensor_type;location;lat;lon;timestamp;P1;durP1;ratioP1;P2;durP2;ratioP2
7971;SDS011;4031;49.758;6.120;2024-01-27T00:01:38;8.20;;;5.80;;
7971;SDS011;4031;49.758;6.120;2024-01-27T00:04:04;13.43;;;7.80;;
7971;SDS011;4031;49.758;6.120;2024-01-27T00:06:30;17.53;;;6.83;;
7971;SDS011;4031;49.758;6.120;2024-01-27T00:08:55;24.03;;;11.60;;
7971;SDS011;4031;49.758;6.120;2024-01-27T00:11:21;24.80;;;7.77;;
7971;SDS011;4031;49.758;6.120;2024-01-27T00:13:49;11.73;;;7.65;;
7971;SDS011;4031;49.758;6.120;2024-01-27T00:16:15;10.23;;;7.00;;
7971;SDS011;4031;49.758;6.120;2024-01-27T00:18:40;16.03;;;6.80;;
7971;SDS011;4031;49.758;6.120;2024-01-27T00:21:06;10.33;;;7.23;;
7971;SDS011;4031;49.758;6.120;2024-01-27T00:23:32;7.78;;;4.68;;
7971;SDS011;4031;49.758;6.120;2024-01-27T00:26:01;11.32;;;4.57;;
7971;SDS011;4031;49.758;6.120;2024-01-27T00:28:27;12.60;;;5.70;;
7971;SDS011;4031;49.758;6.120;2024-01-27T00:30:53;10.13;;;4.77;;
7971;SDS011;4031;49.758;6.120;2024-01-27T00:33:19;8.85;;;5.13;;
7971;SDS011;4031;49.758;6.120;2024-01-27T00:35:45;8.10;;;5.07;;
7971;SDS011;4031;49.758;6.120;2024-01-27T00:38:10;9.90;;;4.77;;
7971;SDS011;4031;49.758;6.120;2024-01-27T00:40:36;9.20;;;4.40;;
7971;SDS011;4031;49.758;6.120;2024-01-27T00:43:02;15.37;;;4.10;;
7971;SDS011;4031;49.758;6.120;2024-01-27T00:45:28;5.38;;;3.55;;
7971;SDS011;4031;49.758;6.120;2024-01-27T00:47:55;9.88;;;5.13;;
7971;SDS011;4031;49.758;6.120;2024-01-27T00:50:21;6.72;;;4.68;;
7971;SDS011;4031;49.758;6.120;2024-01-27T00:52:47;6.93;;;4.30;;
7971;SDS011;4031;49.758;6.120;2024-01-27T00:55:13;6.90;;;3.43;;
7971;SDS011;4031;49.758;6.120;2024-01-27T00:57:39;5.50;;;4.43;;
7971;SDS011;4031;49.758;6.120;2024-01-27T01:00:05;5.40;;;3.77;;
7971;SDS011;4031;49.758;6.120;2024-01-27T01:02:33;6.60;;;3.78;;
7971;SDS011;4031;49.758;6.120;2024-01-27T01:05:00;7.90;;;3.50;;
7971;SDS011;4031;49.758;6.120;2024-01-27T01:07:26;6.63;;;3.85;;
7971;SDS011;4031;49.758;6.120;2024-01-27T01:09:52;9.00;;;4.00;;
7971;SDS011;4031;49.758;6.120;2024-01-27T01:12:17;9.30;;;4.63;;
7971;SDS011;4031;49.758;6.120;2024-01-27T01:14:43;10.53;;;3.80;;
7971;SDS011;4031;49.758;6.120;2024-01-27T01:17:09;3.77;;;2.90;;
7971;SDS011;4031;49.758;6.120;2024-01-27T01:19:38;4.70;;;3.37;;
7971;SDS011;4031;49.758;6.120;2024-01-27T01:22:05;7.25;;;4.05;;
7971;SDS011;4031;49.758;6.120;2024-01-27T01:24:30;7.80;;;4.60;;
7971;SDS011;4031;49.758;6.120;2024-01-27T01:26:56;9.77;;;3.93;;
7971;SDS011;4031;49.758;6.120;2024-01-27T01:29:22;4.27;;;3.70;;
7971;SDS011;4031;49.758;6.120;2024-01-27T01:31:48;8.47;;;3.53;;
7971;SDS011;4031;49.758;6.120;2024-01-27T01:34:14;7.93;;;2.97;;
7971;SDS011;4031;49.758;6.120;2024-01-27T01:36:40;8.75;;;3.90;;
7971;SDS011;4031;49.758;6.120;2024-01-27T01:39:06;5.00;;;3.53;;
7971;SDS011;4031;49.758;6.120;2024-01-27T01:41:32;7.53;;;4.32;;
7971;SDS011;4031;49.758;6.120;2024-01-27T01:43:58;4.07;;;3.40;;
7971;SDS011;4031;49.758;6.120;2024-01-27T01:46:24;5.72;;;3.85;;
7971;SDS011;4031;49.758;6.120;2024-01-27T01:48:50;2.67;;;2.40;;
7971;SDS011;4031;49.758;6.120;2024-01-27T01:51:16;11.67;;;5.40;;
7971;SDS011;4031;49.758;6.120;2024-01-27T01:53:42;6.57;;;3.20;;
7971;SDS011;4031;49.758;6.120;2024-01-27T01:56:10;3.95;;;3.58;;
7971;SDS011;4031;49.758;6.120;2024-01-27T01:58:39;4.35;;;3.92;;
7971;SDS011;4031;49.758;6.120;2024-01-27T02:01:04;4.73;;;3.70;;
7971;SDS011;4031;49.758;6.120;2024-01-27T02:03:30;8.60;;;4.20;;
7971;SDS011;4031;49.758;6.120;2024-01-27T02:05:56;12.50;;;4.67;;
7971;SDS011;4031;49.758;6.120;2024-01-27T02:08:21;7.30;;;5.30;;
7971;SDS011;4031;49.758;6.120;2024-01-27T02:10:47;8.07;;;5.60;;
7971;SDS011;4031;49.758;6.120;2024-01-27T02:13:20;8.47;;;4.57;;
7971;SDS011;4031;49.758;6.120;2024-01-27T02:15:48;7.13;;;4.50;;
7971;SDS011;4031;49.758;6.120;2024-01-27T02:18:15;9.60;;;5.22;;
7971;SDS011;4031;49.758;6.120;2024-01-27T02:20:42;6.55;;;4.13;;
7971;SDS011;4031;49.758;6.120;2024-01-27T02:23:08;4.55;;;4.15;;
7971;SDS011;4031;49.758;6.120;2024-01-27T02:25:34;12.53;;;4.80;;
7971;SDS011;4031;49.758;6.120;2024-01-27T02:28:00;4.65;;;4.30;;
7971;SDS011;4031;49.758;6.120;2024-01-27T02:30:29;19.08;;;5.45;;
7971;SDS011;4031;49.758;6.120;2024-01-27T02:32:55;8.10;;;5.90;;
7971;SDS011;4031;49.758;6.120;2024-01-27T02:35:22;4.28;;;3.88;;
7971;SDS011;4031;49.758;6.120;2024-01-27T02:37:48;7.03;;;3.90;;
7971;SDS011;4031;49.758;6.120;2024-01-27T02:40:14;5.37;;;4.87;;
7971;SDS011;4031;49.758;6.120;2024-01-27T02:42:40;10.90;;;4.30;;
7971;SDS011;4031;49.758;6.120;2024-01-27T02:45:07;9.50;;;3.90;;
7971;SDS011;4031;49.758;6.120;2024-01-27T02:47:33;3.80;;;3.50;;
7971;SDS011;4031;49.758;6.120;2024-01-27T02:49:59;8.83;;;4.67;;
7971;SDS011;4031;49.758;6.120;2024-01-27T02:52:25;4.33;;;3.93;;
7971;SDS011;4031;49.758;6.120;2024-01-27T02:54:52;4.47;;;3.95;;
7971;SDS011;4031;49.758;6.120;2024-01-27T02:57:18;8.90;;;3.80;;
7971;SDS011;4031;49.758;6.120;2024-01-27T02:59:45;5.32;;;4.25;;
7971;SDS011;4031;49.758;6.120;2024-01-27T03:02:11;4.85;;;3.95;;
7971;SDS011;4031;49.758;6.120;2024-01-27T03:04:37;6.20;;;3.55;;
7971;SDS011;4031;49.758;6.120;2024-01-27T03:07:03;5.70;;;5.03;;
7971;SDS011;4031;49.758;6.120;2024-01-27T03:09:30;5.07;;;3.88;;
7971;SDS011;4031;49.758;6.120;2024-01-27T03:11:56;12.38;;;4.90;;
7971;SDS011;4031;49.758;6.120;2024-01-27T03:14:22;5.45;;;4.70;;
7971;SDS011;4031;49.758;6.120;2024-01-27T03:16:48;4.27;;;3.87;;
7971;SDS011;4031;49.758;6.120;2024-01-27T03:19:14;5.20;;;4.20;;
7971;SDS011;4031;49.758;6.120;2024-01-27T03:21:40;6.93;;;4.83;;
7971;SDS011;4031;49.758;6.120;2024-01-27T03:24:06;8.50;;;5.57;;
7971;SDS011;4031;49.758;6.120;2024-01-27T03:26:32;6.60;;;4.97;;
7971;SDS011;4031;49.758;6.120;2024-01-27T03:28:57;13.40;;;4.30;;
7971;SDS011;4031;49.758;6.120;2024-01-27T03:31:23;11.33;;;4.80;;
7971;SDS011;4031;49.758;6.120;2024-01-27T03:33:55;13.40;;;5.78;;
7971;SDS011;4031;49.758;6.120;2024-01-27T03:36:21;4.72;;;4.22;;
7971;SDS011;4031;49.758;6.120;2024-01-27T03:38:47;5.20;;;3.90;;
7971;SDS011;4031;49.758;6.120;2024-01-27T03:41:13;7.90;;;4.00;;
7971;SDS011;4031;49.758;6.120;2024-01-27T03:43:38;10.40;;;5.13;;
7971;SDS011;4031;49.758;6.120;2024-01-27T03:46:04;8.73;;;4.97;;
7971;SDS011;4031;49.758;6.120;2024-01-27T03:48:30;16.07;;;5.40;;
7971;SDS011;4031;49.758;6.120;2024-01-27T03:50:56;5.10;;;3.70;;
7971;SDS011;4031;49.758;6.120;2024-01-27T03:53:21;7.37;;;4.57;;
7971;SDS011;4031;49.758;6.120;2024-01-27T03:55:47;4.83;;;4.40;;
7971;SDS011;4031;49.758;6.120;2024-01-27T03:58:13;6.17;;;3.70;;
7971;SDS011;4031;49.758;6.120;2024-01-27T04:00:38;12.77;;;5.67;;
7971;SDS011;4031;49.758;6.120;2024-01-27T04:03:04;4.37;;;3.97;;
7971;SDS011;4031;49.758;6.120;2024-01-27T04:05:30;28.77;;;5.00;;
7971;SDS011;4031;49.758;6.120;2024-01-27T04:07:56;15.05;;;6.22;;
7971;SDS011;4031;49.758;6.120;2024-01-27T04:10:22;35.67;;;9.03;;
7971;SDS011;4031;49.758;6.120;2024-01-27T04:12:48;21.92;;;8.60;;
7971;SDS011;4031;49.758;6.120;2024-01-27T04:15:14;25.00;;;7.25;;
7971;SDS011;4031;49.758;6.120;2024-01-27T04:17:40;17.00;;;6.00;;
7971;SDS011;4031;49.758;6.120;2024-01-27T04:20:07;15.85;;;5.88;;
7971;SDS011;4031;49.758;6.120;2024-01-27T04:22:34;16.27;;;7.47;;
7971;SDS011;4031;49.758;6.120;2024-01-27T04:25:00;17.00;;;5.55;;
7971;SDS011;4031;49.758;6.120;2024-01-27T04:27:27;17.17;;;5.43;;
7971;SDS011;4031;49.758;6.120;2024-01-27T04:29:53;19.63;;;6.20;;
7971;SDS011;4031;49.758;6.120;2024-01-27T04:32:19;15.85;;;7.63;;
7971;SDS011;4031;49.758;6.120;2024-01-27T04:34:46;31.20;;;8.05;;
7971;SDS011;4031;49.758;6.120;2024-01-27T04:37:12;19.58;;;6.50;;
7971;SDS011;4031;49.758;6.120;2024-01-27T04:39:38;8.00;;;5.50;;
7971;SDS011;4031;49.758;6.120;2024-01-27T04:42:04;38.85;;;9.07;;
7971;SDS011;4031;49.758;6.120;2024-01-27T04:44:33;14.63;;;6.68;;
7971;SDS011;4031;49.758;6.120;2024-01-27T04:47:00;16.08;;;6.20;;
7971;SDS011;4031;49.758;6.120;2024-01-27T04:49:25;22.97;;;6.93;;
7971;SDS011;4031;49.758;6.120;2024-01-27T04:51:52;14.50;;;5.90;;
7971;SDS011;4031;49.758;6.120;2024-01-27T04:54:18;16.00;;;5.37;;
7971;SDS011;4031;49.758;6.120;2024-01-27T04:56:43;16.77;;;4.73;;
7971;SDS011;4031;49.758;6.120;2024-01-27T04:59:09;7.23;;;5.60;;
7971;SDS011;4031;49.758;6.120;2024-01-27T05:01:35;23.30;;;6.07;;
7971;SDS011;4031;49.758;6.120;2024-01-27T05:04:00;23.90;;;5.87;;
7971;SDS011;4031;49.758;6.120;2024-01-27T05:06:26;20.10;;;7.03;;
7971;SDS011;4031;49.758;6.120;2024-01-27T05:08:52;22.93;;;7.87;;
7971;SDS011;4031;49.758;6.120;2024-01-27T05:11:30;20.87;;;8.73;;
7971;SDS011;4031;49.758;6.120;2024-01-27T05:13:57;55.38;;;8.43;;
7971;SDS011;4031;49.758;6.120;2024-01-27T05:16:27;44.60;;;8.18;;
7971;SDS011;4031;49.758;6.120;2024-01-27T05:18:53;28.48;;;10.18;;
7971;SDS011;4031;49.758;6.120;2024-01-27T05:21:19;74.77;;;13.07;;
7971;SDS011;4031;49.758;6.120;2024-01-27T05:23:44;34.03;;;10.57;;
7971;SDS011;4031;49.758;6.120;2024-01-27T05:26:10;44.10;;;11.27;;
7971;SDS011;4031;49.758;6.120;2024-01-27T05:28:36;39.20;;;8.93;;
7971;SDS011;4031;49.758;6.120;2024-01-27T05:31:06;31.55;;;7.97;;
7971;SDS011;4031;49.758;6.120;2024-01-27T05:33:33;23.65;;;6.65;;
7971;SDS011;4031;49.758;6.120;2024-01-27T05:35:59;21.15;;;7.10;;
7971;SDS011;4031;49.758;6.120;2024-01-27T05:38:25;11.40;;;6.93;;
7971;SDS011;4031;49.758;6.120;2024-01-27T05:40:51;26.67;;;8.02;;
7971;SDS011;4031;49.758;6.120;2024-01-27T05:43:17;69.55;;;8.15;;
7971;SDS011;4031;49.758;6.120;2024-01-27T05:45:43;15.43;;;5.97;;
7971;SDS011;4031;49.758;6.120;2024-01-27T05:48:10;16.00;;;6.45;;
7971;SDS011;4031;49.758;6.120;2024-01-27T05:50:36;11.88;;;5.47;;
7971;SDS011;4031;49.758;6.120;2024-01-27T05:53:01;17.63;;;6.73;;
7971;SDS011;4031;49.758;6.120;2024-01-27T05:55:27;11.87;;;5.90;;
7971;SDS011;4031;49.758;6.120;2024-01-27T05:57:53;19.10;;;5.67;;
7971;SDS011;4031;49.758;6.120;2024-01-27T06:00:21;10.27;;;5.80;;
7971;SDS011;4031;49.758;6.120;2024-01-27T06:02:47;12.50;;;5.40;;
7971;SDS011;4031;49.758;6.120;2024-01-27T06:05:13;31.17;;;6.93;;
7971;SDS011;4031;49.758;6.120;2024-01-27T06:07:38;73.60;;;13.77;;
7971;SDS011;4031;49.758;6.120;2024-01-27T06:10:08;28.90;;;8.23;;
7971;SDS011;4031;49.758;6.120;2024-01-27T06:12:34;36.20;;;11.95;;
7971;SDS011;4031;49.758;6.120;2024-01-27T06:15:02;64.22;;;10.80;;
7971;SDS011;4031;49.758;6.120;2024-01-27T06:17:28;40.20;;;9.18;;
7971;SDS011;4031;49.758;6.120;2024-01-27T06:19:54;56.73;;;8.87;;
7971;SDS011;4031;49.758;6.120;2024-01-27T06:22:20;73.90;;;11.80;;
7971;SDS011;4031;49.758;6.120;2024-01-27T06:24:46;31.37;;;7.33;;
7971;SDS011;4031;49.758;6.120;2024-01-27T06:27:11;23.20;;;7.13;;
7971;SDS011;4031;49.758;6.120;2024-01-27T06:29:37;35.80;;;7.70;;
7971;SDS011;4031;49.758;6.120;2024-01-27T06:32:05;20.10;;;8.43;;
7971;SDS011;4031;49.758;6.120;2024-01-27T06:34:31;55.73;;;9.37;;
7971;SDS011;4031;49.758;6.120;2024-01-27T06:36:58;83.80;;;13.98;;
7971;SDS011;4031;49.758;6.120;2024-01-27T06:39:23;41.77;;;12.60;;
7971;SDS011;4031;49.758;6.120;2024-01-27T06:41:49;46.20;;;12.80;;
7971;SDS011;4031;49.758;6.120;2024-01-27T06:44:15;56.67;;;13.80;;
7971;SDS011;4031;49.758;6.120;2024-01-27T06:46:41;18.70;;;6.20;;
7971;SDS011;4031;49.758;6.120;2024-01-27T06:49:06;21.00;;;6.60;;
7971;SDS011;4031;49.758;6.120;2024-01-27T06:51:32;49.70;;;8.27;;
7971;SDS011;4031;49.758;6.120;2024-01-27T06:53:58;25.60;;;8.30;;
7971;SDS011;4031;49.758;6.120;2024-01-27T06:56:23;52.03;;;8.47;;
7971;SDS011;4031;49.758;6.120;2024-01-27T06:58:49;31.03;;;9.20;;
7971;SDS011;4031;49.758;6.120;2024-01-27T07:01:15;30.67;;;7.00;;
7971;SDS011;4031;49.758;6.120;2024-01-27T07:03:41;66.68;;;7.65;;
7971;SDS011;4031;49.758;6.120;2024-01-27T07:06:09;9.70;;;4.00;;
7971;SDS011;4031;49.758;6.120;2024-01-27T07:08:35;50.13;;;9.50;;
7971;SDS011;4031;49.758;6.120;2024-01-27T07:11:00;35.90;;;7.87;;
7971;SDS011;4031;49.758;6.120;2024-01-27T07:13:26;33.97;;;6.70;;
7971;SDS011;4031;49.758;6.120;2024-01-27T07:15:54;50.28;;;8.90;;
7971;SDS011;4031;49.758;6.120;2024-01-27T07:18:21;18.88;;;5.75;;
7971;SDS011;4031;49.758;6.120;2024-01-27T07:20:47;12.00;;;4.95;;
7971;SDS011;4031;49.758;6.120;2024-01-27T07:23:13;15.50;;;7.00;;
7971;SDS011;4031;49.758;6.120;2024-01-27T07:25:38;29.97;;;9.40;;
7971;SDS011;4031;49.758;6.120;2024-01-27T07:28:04;10.23;;;6.97;;
7971;SDS011;4031;49.758;6.120;2024-01-27T07:30:30;6.93;;;5.00;;
7971;SDS011;4031;49.758;6.120;2024-01-27T07:32:56;19.57;;;5.10;;
7971;SDS011;4031;49.758;6.120;2024-01-27T07:35:22;19.80;;;6.83;;
7971;SDS011;4031;49.758;6.120;2024-01-27T07:37:47;10.03;;;5.03;;
7971;SDS011;4031;49.758;6.120;2024-01-27T07:40:13;12.80;;;5.50;;
7971;SDS011;4031;49.758;6.120;2024-01-27T07:42:39;12.77;;;4.77;;
7971;SDS011;4031;49.758;6.120;2024-01-27T07:45:06;17.20;;;5.38;;
7971;SDS011;4031;49.758;6.120;2024-01-27T07:47:33;22.63;;;6.38;;
7971;SDS011;4031;49.758;6.120;2024-01-27T07:49:59;26.10;;;7.03;;
7971;SDS011;4031;49.758;6.120;2024-01-27T07:52:25;31.27;;;6.70;;
7971;SDS011;4031;49.758;6.120;2024-01-27T07:54:51;15.17;;;7.07;;
7971;SDS011;4031;49.758;6.120;2024-01-27T07:57:16;25.00;;;6.30;;
7971;SDS011;4031;49.758;6.120;2024-01-27T07:59:42;9.70;;;5.13;;
7971;SDS011;4031;49.758;6.120;2024-01-27T08:02:08;8.60;;;4.47;;
7971;SDS011;4031;49.758;6.120;2024-01-27T08:04:34;6.83;;;4.97;;
7971;SDS011;4031;49.758;6.120;2024-01-27T08:06:59;26.63;;;8.47;;
7971;SDS011;4031;49.758;6.120;2024-01-27T08:09:31;49.75;;;9.95;;
7971;SDS011;4031;49.758;6.120;2024-01-27T08:11:56;21.67;;;8.00;;
7971;SDS011;4031;49.758;6.120;2024-01-27T08:14:22;69.17;;;11.17;;
7971;SDS011;4031;49.758;6.120;2024-01-27T08:16:48;114.53;;;14.67;;
7971;SDS011;4031;49.758;6.120;2024-01-27T08:19:13;51.73;;;11.90;;
7971;SDS011;4031;49.758;6.120;2024-01-27T08:21:45;12.23;;;6.32;;
7971;SDS011;4031;49.758;6.120;2024-01-27T08:24:12;19.95;;;6.57;;
7971;SDS011;4031;49.758;6.120;2024-01-27T08:26:38;21.10;;;8.57;;
7971;SDS011;4031;49.758;6.120;2024-01-27T08:29:04;35.70;;;8.87;;
7971;SDS011;4031;49.758;6.120;2024-01-27T08:31:30;36.93;;;10.03;;
7971;SDS011;4031;49.758;6.120;2024-01-27T08:33:56;50.83;;;8.80;;
7971;SDS011;4031;49.758;6.120;2024-01-27T08:36:22;17.33;;;5.38;;
7971;SDS011;4031;49.758;6.120;2024-01-27T08:38:47;22.93;;;7.50;;
7971;SDS011;4031;49.758;6.120;2024-01-27T08:41:13;11.37;;;5.90;;
7971;SDS011;4031;49.758;6.120;2024-01-27T08:43:39;25.73;;;7.93;;
7971;SDS011;4031;49.758;6.120;2024-01-27T08:46:04;40.17;;;8.70;;
7971;SDS011;4031;49.758;6.120;2024-01-27T08:48:31;40.75;;;4.70;;
7971;SDS011;4031;49.758;6.120;2024-01-27T08:50:57;12.90;;;5.73;;
7971;SDS011;4031;49.758;6.120;2024-01-27T08:53:23;25.47;;;6.30;;
7971;SDS011;4031;49.758;6.120;2024-01-27T08:55:48;53.73;;;10.47;;
7971;SDS011;4031;49.758;6.120;2024-01-27T08:58:14;40.03;;;8.67;;
7971;SDS011;4031;49.758;6.120;2024-01-27T09:00:40;55.53;;;8.73;;
7971;SDS011;4031;49.758;6.120;2024-01-27T09:03:06;8.93;;;3.17;;
7971;SDS011;4031;49.758;6.120;2024-01-27T09:05:32;46.45;;;8.75;;
7971;SDS011;4031;49.758;6.120;2024-01-27T09:07:58;22.23;;;6.50;;
7971;SDS011;4031;49.758;6.120;2024-01-27T09:10:23;3.90;;;3.00;;
7971;SDS011;4031;49.758;6.120;2024-01-27T09:12:49;7.27;;;4.53;;
7971;SDS011;4031;49.758;6.120;2024-01-27T09:15:15;6.20;;;4.50;;
7971;SDS011;4031;49.758;6.120;2024-01-27T09:17:41;6.55;;;4.65;;
7971;SDS011;4031;49.758;6.120;2024-01-27T09:20:08;6.50;;;4.88;;
7971;SDS011;4031;49.758;6.120;2024-01-27T09:22:35;6.72;;;5.00;;
7971;SDS011;4031;49.758;6.120;2024-01-27T09:25:01;14.50;;;6.10;;
7971;SDS011;4031;49.758;6.120;2024-01-27T09:27:27;4.70;;;4.33;;
7971;SDS011;4031;49.758;6.120;2024-01-27T09:29:52;12.80;;;6.27;;
7971;SDS011;4031;49.758;6.120;2024-01-27T09:32:18;3.63;;;3.33;;
7971;SDS011;4031;49.758;6.120;2024-01-27T09:34:44;5.40;;;4.53;;
7971;SDS011;4031;49.758;6.120;2024-01-27T09:37:10;9.60;;;5.60;;
7971;SDS011;4031;49.758;6.120;2024-01-27T09:39:36;17.93;;;4.47;;
7971;SDS011;4031;49.758;6.120;2024-01-27T09:42:02;9.83;;;4.70;;
7971;SDS011;4031;49.758;6.120;2024-01-27T09:44:32;19.00;;;6.87;;
7971;SDS011;4031;49.758;6.120;2024-01-27T09:46:59;25.87;;;6.23;;
7971;SDS011;4031;49.758;6.120;2024-01-27T09:49:26;11.07;;;4.63;;
7971;SDS011;4031;49.758;6.120;2024-01-27T09:51:52;9.23;;;5.80;;
7971;SDS011;4031;49.758;6.120;2024-01-27T09:54:18;6.70;;;4.37;;
7971;SDS011;4031;49.758;6.120;2024-01-27T09:56:45;21.67;;;6.90;;
7971;SDS011;4031;49.758;6.120;2024-01-27T09:59:12;24.23;;;7.27;;
7971;SDS011;4031;49.758;6.120;2024-01-27T10:01:40;18.80;;;7.10;;
7971;SDS011;4031;49.758;6.120;2024-01-27T10:04:07;6.47;;;5.30;;
7971;SDS011;4031;49.758;6.120;2024-01-27T10:06:34;17.80;;;7.00;;
7971;SDS011;4031;49.758;6.120;2024-01-27T10:08:59;13.20;;;6.33;;
7971;SDS011;4031;49.758;6.120;2024-01-27T10:11:25;13.30;;;5.10;;
7971;SDS011;4031;49.758;6.120;2024-01-27T10:13:54;14.97;;;5.50;;
7971;SDS011;4031;49.758;6.120;2024-01-27T10:16:27;101.57;;;14.50;;
7971;SDS011;4031;49.758;6.120;2024-01-27T10:19:00;52.03;;;10.33;;
7971;SDS011;4031;49.758;6.120;2024-01-27T10:21:27;17.83;;;6.17;;
7971;SDS011;4031;49.758;6.120;2024-01-27T10:23:53;20.83;;;7.03;;
7971;SDS011;4031;49.758;6.120;2024-01-27T10:26:18;11.00;;;6.23;;
7971;SDS011;4031;49.758;6.120;2024-01-27T10:28:56;18.80;;;6.80;;
7971;SDS011;4031;49.758;6.120;2024-01-27T10:31:26;37.07;;;7.97;;
7971;SDS011;4031;49.758;6.120;2024-01-27T10:33:56;48.50;;;12.43;;
7971;SDS011;4031;49.758;6.120;2024-01-27T10:36:23;19.70;;;7.73;;
7971;SDS011;4031;49.758;6.120;2024-01-27T10:38:49;26.10;;;9.30;;
7971;SDS011;4031;49.758;6.120;2024-01-27T10:41:21;11.90;;;6.97;;
7971;SDS011;4031;49.758;6.120;2024-01-27T10:43:52;19.77;;;9.33;;
7971;SDS011;4031;49.758;6.120;2024-01-27T10:46:20;47.20;;;12.47;;
7971;SDS011;4031;49.758;6.120;2024-01-27T10:48:52;43.93;;;9.40;;
7971;SDS011;4031;49.758;6.120;2024-01-27T10:51:23;45.23;;;8.27;;
7971;SDS011;4031;49.758;6.120;2024-01-27T10:54:00;31.07;;;9.87;;
7971;SDS011;4031;49.758;6.120;2024-01-27T10:56:31;36.77;;;9.63;;
7971;SDS011;4031;49.758;6.120;2024-01-27T10:58:58;17.60;;;7.23;;
7971;SDS011;4031;49.758;6.120;2024-01-27T11:01:25;19.53;;;9.30;;
7971;SDS011;4031;49.758;6.120;2024-01-27T11:03:53;20.13;;;8.00;;
7971;SDS011;4031;49.758;6.120;2024-01-27T11:06:21;19.13;;;8.23;;
7971;SDS011;4031;49.758;6.120;2024-01-27T11:08:49;16.90;;;7.90;;
7971;SDS011;4031;49.758;6.120;2024-01-27T11:11:15;24.30;;;6.90;;
7971;SDS011;4031;49.758;6.120;2024-01-27T11:13:42;13.87;;;7.80;;
7971;SDS011;4031;49.758;6.120;2024-01-27T11:16:16;26.37;;;7.70;;
7971;SDS011;4031;49.758;6.120;2024-01-27T11:18:43;65.40;;;11.60;;
7971;SDS011;4031;49.758;6.120;2024-01-27T11:21:13;20.73;;;10.13;;
7971;SDS011;4031;49.758;6.120;2024-01-27T11:23:40;17.13;;;8.60;;
7971;SDS011;4031;49.758;6.120;2024-01-27T11:26:07;16.00;;;9.63;;
7971;SDS011;4031;49.758;6.120;2024-01-27T11:28:34;16.67;;;8.40;;
7971;SDS011;4031;49.758;6.120;2024-01-27T11:31:05;10.80;;;7.10;;
7971;SDS011;4031;49.758;6.120;2024-01-27T11:33:31;16.10;;;8.47;;
7971;SDS011;4031;49.758;6.120;2024-01-27T11:36:01;10.57;;;6.97;;
7971;SDS011;4031;49.758;6.120;2024-01-27T11:38:29;23.00;;;8.63;;
7971;SDS011;4031;49.758;6.120;2024-01-27T11:40:56;11.53;;;6.00;;
7971;SDS011;4031;49.758;6.120;2024-01-27T11:43:23;17.03;;;7.67;;
7971;SDS011;4031;49.758;6.120;2024-01-27T11:45:58;14.10;;;8.10;;
7971;SDS011;4031;49.758;6.120;2024-01-27T11:48:25;10.20;;;7.90;;
7971;SDS011;4031;49.758;6.120;2024-01-27T11:51:05;12.10;;;7.00;;
7971;SDS011;4031;49.758;6.120;2024-01-27T11:53:33;10.60;;;8.17;;
7971;SDS011;4031;49.758;6.120;2024-01-27T11:55:59;10.30;;;8.10;;
7971;SDS011;4031;49.758;6.120;2024-01-27T11:58:26;8.07;;;7.27;;
7971;SDS011;4031;49.758;6.120;2024-01-27T12:00:52;9.00;;;8.07;;
7971;SDS011;4031;49.758;6.120;2024-01-27T12:03:18;10.03;;;7.33;;
7971;SDS011;4031;49.758;6.120;2024-01-27T12:05:44;10.60;;;6.77;;
7971;SDS011;4031;49.758;6.120;2024-01-27T12:08:10;9.20;;;7.93;;
7971;SDS011;4031;49.758;6.120;2024-01-27T12:10:36;9.10;;;7.60;;
7971;SDS011;4031;49.758;6.120;2024-01-27T12:13:03;9.03;;;7.70;;
7971;SDS011;4031;49.758;6.120;2024-01-27T12:15:29;7.50;;;6.80;;
7971;SDS011;4031;49.758;6.120;2024-01-27T12:17:55;9.93;;;7.90;;
7971;SDS011;4031;49.758;6.120;2024-01-27T12:20:22;9.90;;;7.43;;
7971;SDS011;4031;49.758;6.120;2024-01-27T12:22:48;12.27;;;7.70;;
7971;SDS011;4031;49.758;6.120;2024-01-27T12:25:20;11.47;;;8.77;;
7971;SDS011;4031;49.758;6.120;2024-01-27T12:27:46;11.80;;;8.07;;
7971;SDS011;4031;49.758;6.120;2024-01-27T12:30:12;7.67;;;6.60;;
7971;SDS011;4031;49.758;6.120;2024-01-27T12:32:38;9.40;;;7.80;;
7971;SDS011;4031;49.758;6.120;2024-01-27T12:35:04;9.77;;;7.63;;
7971;SDS011;4031;49.758;6.120;2024-01-27T12:37:30;11.93;;;6.80;;
7971;SDS011;4031;49.758;6.120;2024-01-27T12:39:56;10.97;;;7.37;;
7971;SDS011;4031;49.758;6.120;2024-01-27T12:42:22;7.97;;;6.70;;
7971;SDS011;4031;49.758;6.120;2024-01-27T12:44:48;13.60;;;6.80;;
7971;SDS011;4031;49.758;6.120;2024-01-27T12:47:14;8.07;;;6.20;;
7971;SDS011;4031;49.758;6.120;2024-01-27T12:49:39;10.80;;;6.57;;
7971;SDS011;4031;49.758;6.120;2024-01-27T12:52:08;8.77;;;6.90;;
7971;SDS011;4031;49.758;6.120;2024-01-27T12:54:33;8.90;;;6.67;;
7971;SDS011;4031;49.758;6.120;2024-01-27T12:56:59;9.40;;;6.50;;
7971;SDS011;4031;49.758;6.120;2024-01-27T12:59:26;7.00;;;6.30;;
7971;SDS011;4031;49.758;6.120;2024-01-27T13:01:53;11.70;;;7.90;;
7971;SDS011;4031;49.758;6.120;2024-01-27T13:04:19;10.77;;;6.87;;
7971;SDS011;4031;49.758;6.120;2024-01-27T13:06:45;14.37;;;8.70;;
7971;SDS011;4031;49.758;6.120;2024-01-27T13:09:10;20.40;;;10.60;;
7971;SDS011;4031;49.758;6.120;2024-01-27T13:11:37;13.00;;;6.73;;
7971;SDS011;4031;49.758;6.120;2024-01-27T13:14:03;15.80;;;8.27;;
7971;SDS011;4031;49.758;6.120;2024-01-27T13:16:30;14.83;;;9.03;;
7971;SDS011;4031;49.758;6.120;2024-01-27T13:18:56;18.77;;;9.90;;
7971;SDS011;4031;49.758;6.120;2024-01-27T13:21:21;11.30;;;6.80;;
7971;SDS011;4031;49.758;6.120;2024-01-27T13:23:47;10.23;;;5.60;;
7971;SDS011;4031;49.758;6.120;2024-01-27T13:26:13;9.20;;;5.37;;
7971;SDS011;4031;49.758;6.120;2024-01-27T13:28:39;6.50;;;4.60;;
7971;SDS011;4031;49.758;6.120;2024-01-27T13:31:05;10.57;;;4.80;;
7971;SDS011;4031;49.758;6.120;2024-01-27T13:33:32;7.40;;;4.30;;
7971;SDS011;4031;49.758;6.120;2024-01-27T13:36:00;9.43;;;4.67;;
7971;SDS011;4031;49.758;6.120;2024-01-27T13:38:25;6.77;;;4.00;;
7971;SDS011;4031;49.758;6.120;2024-01-27T13:40:51;9.20;;;4.00;;
7971;SDS011;4031;49.758;6.120;2024-01-27T13:43:17;4.87;;;4.30;;
7971;SDS011;4031;49.758;6.120;2024-01-27T13:45:43;7.63;;;3.60;;
7971;SDS011;4031;49.758;6.120;2024-01-27T13:48:09;10.47;;;3.70;;
7971;SDS011;4031;49.758;6.120;2024-01-27T13:50:35;6.93;;;3.43;;
7971;SDS011;4031;49.758;6.120;2024-01-27T13:53:01;5.17;;;3.33;;
7971;SDS011;4031;49.758;6.120;2024-01-27T13:55:28;8.53;;;3.30;;
7971;SDS011;4031;49.758;6.120;2024-01-27T13:57:54;7.73;;;3.80;;
7971;SDS011;4031;49.758;6.120;2024-01-27T14:00:20;5.90;;;4.03;;
7971;SDS011;4031;49.758;6.120;2024-01-27T14:02:46;6.13;;;3.70;;
7971;SDS011;4031;49.758;6.120;2024-01-27T14:05:12;6.77;;;3.50;;
7971;SDS011;4031;49.758;6.120;2024-01-27T14:07:37;5.40;;;2.90;;
7971;SDS011;4031;49.758;6.120;2024-01-27T14:10:03;7.20;;;3.47;;
7971;SDS011;4031;49.758;6.120;2024-01-27T14:12:29;5.60;;;3.20;;
7971;SDS011;4031;49.758;6.120;2024-01-27T14:15:03;8.43;;;5.13;;
7971;SDS011;4031;49.758;6.120;2024-01-27T14:17:31;6.77;;;3.47;;
7971;SDS011;4031;49.758;6.120;2024-01-27T14:20:00;6.00;;;3.30;;
7971;SDS011;4031;49.758;6.120;2024-01-27T14:22:26;6.73;;;4.10;;
7971;SDS011;4031;49.758;6.120;2024-01-27T14:24:52;6.83;;;2.80;;
7971;SDS011;4031;49.758;6.120;2024-01-27T14:27:18;6.33;;;3.40;;
7971;SDS011;4031;49.758;6.120;2024-01-27T14:29:50;5.03;;;3.03;;
7971;SDS011;4031;49.758;6.120;2024-01-27T14:32:20;4.83;;;3.43;;
7971;SDS011;4031;49.758;6.120;2024-01-27T14:34:46;6.23;;;3.83;;
7971;SDS011;4031;49.758;6.120;2024-01-27T14:37:12;4.67;;;3.20;;
7971;SDS011;4031;49.758;6.120;2024-01-27T14:39:41;7.33;;;3.90;;
7971;SDS011;4031;49.758;6.120;2024-01-27T14:42:14;7.63;;;4.10;;
7971;SDS011;4031;49.758;6.120;2024-01-27T14:44:43;7.13;;;4.40;;
7971;SDS011;4031;49.758;6.120;2024-01-27T14:47:14;7.40;;;4.40;;
7971;SDS011;4031;49.758;6.120;2024-01-27T14:49:40;11.33;;;5.47;;
7971;SDS011;4031;49.758;6.120;2024-01-27T14:52:08;5.27;;;3.97;;
7971;SDS011;4031;49.758;6.120;2024-01-27T14:54:36;7.13;;;3.80;;
7971;SDS011;4031;49.758;6.120;2024-01-27T14:57:02;8.90;;;3.50;;
7971;SDS011;4031;49.758;6.120;2024-01-27T14:59:28;9.60;;;3.53;;
7971;SDS011;4031;49.758;6.120;2024-01-27T15:01:54;4.87;;;2.70;;